Search for airport 
image banner adimage banner adimage banner ad
image banner ad

KDSM - Des Moines Intl

Located in Des Moines, United States

ICAO - DSM, IATA - DSM

Data provided by Airmate  

General information

Coordinates: N41°32'2" W93°39'47"
Elevation is 958 feet MSL.
Magnetic variation is 01° East
View others Airports in Iowa

Operational data

Special qualification required
Current time UTC:
Current local time:
Weather
METAR: KDSM 150954Z 34003KT 10SM BKN250 18/12 A3009 RMK AO2 SLP181 T01780117
TAF: KDSM 150520Z 1506/1606 36003KT P6SM SKC
View NOTAMs / SUP AIP / TFR affecting this airport [VIEW]
Communications frequencies: [VIEW]

Runways:

RWY identifierQFULength (ft)Width (ft)SurfaceLDA (ft)
0554°9004150OTHER9004
23234°9004150OTHER9004
13132°9002150OTHER9001
31312°9002150OTHER9001

Airport contact information

Address: Des Moines United States

Other aviation service providers

Flight schools

Aero America

Aero America
steve@aero-america.com+1(515)865-2790

Ascension Flight Training

Ascension Flight Training

Satellite view of KDSM